»·PEaware :: UAL191 KLAX-KSAN

UAL191 :: KLAX-KSAN

FLIGHT INFORMATION

Flight Status: Arrived
Operator:
United Airlines
More flights by this operator :: More flights under this callsign
Pilot: Sergei F. (8485)
Aircraft: BOEING 737-300
(B733)
More flights by this aircraft type
Origin: KLAX Los Angeles Intl
United States
Destination: KSAN San Diego Intl-Lindbergh
United States
More flights between these airports :: More routes between these airports
Route: LAX1 MZB
File this flight plan on PilotEdge
Remarks:
Altitude:
(Current/Filed)
11,000ft
Speed:
(Current/Filed)
300kts
Departed: 09-May-18 12:37 AM
Arrived: 09-May-18 01:12 AM
Distance/Time
Traveled:
94nm/0:35
Distance/Time
To Go:
Arrived

Flight Plot

Page will automatically refresh every two minutes.

Flight plan parsing failed; only flown route is shown


Map Options




Map Legend


Flown Route
Filed Route
Departure Airport
Arrival Airport
Navaid (VOR, NDB)
Fix

Horizontal Profiles

Position Reports

Time Latitude Longitude Heading Altitude Ground
Speed
09-May-18 00:21 33.940366 -118.399760 34 112ft 0kts
09-May-18 00:22 33.940366 -118.399760 34 112ft 0kts
09-May-18 00:23 33.940366 -118.399760 34 112ft 0kts
09-May-18 00:24 33.940366 -118.399761 34 112ft 0kts
09-May-18 00:25 33.940365 -118.399761 34 112ft 0kts
09-May-18 00:26 33.939980 -118.399874 351 112ft 2kts
09-May-18 00:27 33.939586 -118.400111 87 112ft 0kts
09-May-18 00:28 33.939633 -118.399714 83 112ft 0kts
09-May-18 00:29 33.939633 -118.399714 83 112ft 0kts
09-May-18 00:30 33.939633 -118.399714 83 112ft 0kts
09-May-18 00:31 33.939634 -118.399712 83 112ft 0kts
09-May-18 00:32 33.939797 -118.398052 83 112ft 10kts
09-May-18 00:33 33.940263 -118.393499 83 112ft 16kts
09-May-18 00:34 33.940740 -118.388039 83 112ft 14kts
09-May-18 00:35 33.941156 -118.383893 96 112ft 8kts
09-May-18 00:36 33.940676 -118.381371 83 112ft 7kts
09-May-18 00:37 33.939660 -118.381984 264 112ft 51kts
09-May-18 00:38 33.933856 -118.428953 262 2231ft 159kts
09-May-18 00:39 33.912829 -118.479250 232 4437ft 193kts
09-May-18 00:40 33.875250 -118.532585 213 7351ft 223kts
09-May-18 00:41 33.827635 -118.501215 111 10155ft 239kts
09-May-18 00:42 33.795301 -118.410486 111 10912ft 342kts
09-May-18 00:43 33.758388 -118.305798 111 11003ft 339kts
09-May-18 00:44 33.721700 -118.201687 111 11001ft 340kts
09-May-18 00:45 33.685078 -118.097661 111 11001ft 340kts
09-May-18 00:46 33.648397 -117.993364 111 11001ft 340kts
09-May-18 00:47 33.611649 -117.888778 111 11001ft 340kts
09-May-18 00:48 33.555967 -117.798997 130 11010ft 341kts
09-May-18 00:49 33.493078 -117.714441 130 11009ft 341kts
09-May-18 00:50 33.426378 -117.634355 134 11008ft 341kts
09-May-18 00:51 33.359584 -117.556336 134 11001ft 341kts
09-May-18 00:52 33.292139 -117.477608 134 11001ft 340kts
09-May-18 00:53 33.220231 -117.406476 162 11002ft 340kts
09-May-18 00:54 33.130377 -117.371126 160 10994ft 341kts
09-May-18 00:55 33.042402 -117.334192 160 10995ft 340kts
09-May-18 00:56 32.953378 -117.296827 159 11002ft 339kts
09-May-18 00:57 32.866509 -117.260474 161 10992ft 338kts
09-May-18 00:58 32.780708 -117.218453 135 10117ft 325kts
09-May-18 00:59 32.748209 -117.126710 106 8784ft 299kts
09-May-18 01:00 32.723942 -117.036539 97 7522ft 273kts
09-May-18 01:01 32.714766 -116.949188 95 6031ft 263kts
09-May-18 01:02 32.706735 -116.865184 95 5000ft 237kts
09-May-18 01:03 32.675986 -116.811712 189 4847ft 207kts
09-May-18 01:04 32.651858 -116.863379 273 4056ft 193kts
09-May-18 01:05 32.665548 -116.918613 292 4037ft 171kts
09-May-18 01:06 32.680645 -116.970830 286 3527ft 164kts
09-May-18 01:07 32.692342 -117.020239 286 2881ft 154kts
09-May-18 01:08 32.703731 -117.066797 285 2002ft 141kts
09-May-18 01:09 32.713951 -117.109638 285 1470ft 138kts
09-May-18 01:10 32.724958 -117.153706 284 654ft 142kts
09-May-18 01:11 32.734680 -117.194334 285 22ft 76kts
09-May-18 01:12 32.735805 -117.202116 193 22ft 9kts
09-May-18 01:13 32.734623 -117.203260 231 21ft 2kts
09-May-18 01:14 32.734504 -117.203437 231 21ft 0kts
09-May-18 01:15 32.734504 -117.203437 231 21ft 0kts
09-May-18 01:16 32.734504 -117.203437 231 21ft 0kts
09-May-18 01:17 32.734504 -117.203437 231 21ft 0kts
09-May-18 01:18 32.734504 -117.203437 231 21ft 0kts
09-May-18 01:19 32.734504 -117.203437 231 21ft 0kts
09-May-18 01:20 32.734504 -117.203437 231 21ft 0kts
09-May-18 01:21 32.734504 -117.203437 231 21ft 0kts
09-May-18 01:22 32.734504 -117.203437 231 21ft 0kts
09-May-18 01:23 32.734504 -117.203437 231 21ft 0kts
09-May-18 01:24 32.734504 -117.203437 231 21ft 0kts
09-May-18 01:25 32.734504 -117.203437 231 21ft 0kts
09-May-18 01:26 32.734504 -117.203437 231 21ft 0kts

Navigation Log

Ident Type
Flight plan parsing failed, navigation log unavailable